sensor_id;sensor_type;location;lat;lon;timestamp;P1;durP1;ratioP1;P2;durP2;ratioP2
33495;SDS011;19836;55.812;37.560;2022-12-10T06:40:19;40.25;;;20.65;;
33495;SDS011;19836;55.812;37.560;2022-12-10T06:42:46;38.05;;;21.75;;
33495;SDS011;19836;55.812;37.560;2022-12-10T07:27:17;40.13;;;21.05;;
33495;SDS011;19836;55.812;37.560;2022-12-10T07:29:43;39.35;;;21.65;;
33495;SDS011;19836;55.812;37.560;2022-12-10T07:35:11;34.45;;;20.13;;
33495;SDS011;19836;55.812;37.560;2022-12-10T07:38:36;44.72;;;20.45;;
33495;SDS011;19836;55.812;37.560;2022-12-10T07:41:07;41.75;;;21.15;;
33495;SDS011;19836;55.812;37.560;2022-12-10T07:43:35;36.92;;;20.92;;
33495;SDS011;19836;55.812;37.560;2022-12-10T07:46:04;39.33;;;21.08;;
33495;SDS011;19836;55.812;37.560;2022-12-10T07:48:43;41.08;;;23.52;;
33495;SDS011;19836;55.812;37.560;2022-12-10T07:54:29;37.20;;;21.17;;
33495;SDS011;19836;55.812;37.560;2022-12-10T07:58:50;41.08;;;20.73;;
33495;SDS011;19836;55.812;37.560;2022-12-10T08:01:19;39.95;;;21.77;;
33495;SDS011;19836;55.812;37.560;2022-12-10T08:03:48;40.15;;;21.15;;
33495;SDS011;19836;55.812;37.560;2022-12-10T08:06:15;47.28;;;21.42;;
33495;SDS011;19836;55.812;37.560;2022-12-10T08:08:44;43.83;;;21.52;;
33495;SDS011;19836;55.812;37.560;2022-12-10T08:11:11;42.80;;;22.38;;
33495;SDS011;19836;55.812;37.560;2022-12-10T08:13:39;40.55;;;21.73;;
33495;SDS011;19836;55.812;37.560;2022-12-10T08:16:28;43.15;;;23.35;;
33495;SDS011;19836;55.812;37.560;2022-12-10T08:18:54;46.30;;;20.80;;
33495;SDS011;19836;55.812;37.560;2022-12-10T08:21:22;45.13;;;22.45;;
33495;SDS011;19836;55.812;37.560;2022-12-10T08:23:50;43.88;;;22.80;;
33495;SDS011;19836;55.812;37.560;2022-12-10T08:26:19;49.00;;;25.13;;
33495;SDS011;19836;55.812;37.560;2022-12-10T08:28:47;52.58;;;25.00;;
33495;SDS011;19836;55.812;37.560;2022-12-10T08:31:14;61.78;;;27.95;;
33495;SDS011;19836;55.812;37.560;2022-12-10T08:33:41;55.10;;;25.35;;
33495;SDS011;19836;55.812;37.560;2022-12-10T08:36:08;52.00;;;24.58;;
33495;SDS011;19836;55.812;37.560;2022-12-10T08:38:37;62.93;;;25.40;;
33495;SDS011;19836;55.812;37.560;2022-12-10T08:41:07;51.00;;;24.83;;
33495;SDS011;19836;55.812;37.560;2022-12-10T08:43:38;53.70;;;24.55;;
33495;SDS011;19836;55.812;37.560;2022-12-10T08:46:05;56.33;;;26.42;;
33495;SDS011;19836;55.812;37.560;2022-12-10T08:48:31;50.83;;;24.48;;
33495;SDS011;19836;55.812;37.560;2022-12-10T08:50:58;48.17;;;22.70;;
33495;SDS011;19836;55.812;37.560;2022-12-10T08:53:24;57.88;;;24.73;;
33495;SDS011;19836;55.812;37.560;2022-12-10T08:55:50;46.08;;;23.17;;
33495;SDS011;19836;55.812;37.560;2022-12-10T08:58:17;52.97;;;25.30;;
33495;SDS011;19836;55.812;37.560;2022-12-10T09:00:43;55.33;;;24.67;;
33495;SDS011;19836;55.812;37.560;2022-12-10T09:03:09;54.38;;;23.55;;
33495;SDS011;19836;55.812;37.560;2022-12-10T09:05:35;54.03;;;24.85;;
33495;SDS011;19836;55.812;37.560;2022-12-10T09:08:01;54.55;;;24.95;;
33495;SDS011;19836;55.812;37.560;2022-12-10T09:10:27;54.72;;;25.08;;
33495;SDS011;19836;55.812;37.560;2022-12-10T09:12:53;53.17;;;24.48;;
33495;SDS011;19836;55.812;37.560;2022-12-10T09:15:19;51.10;;;24.33;;
33495;SDS011;19836;55.812;37.560;2022-12-10T09:17:45;51.35;;;24.13;;
33495;SDS011;19836;55.812;37.560;2022-12-10T09:20:11;61.25;;;26.85;;
33495;SDS011;19836;55.812;37.560;2022-12-10T09:22:38;55.28;;;24.85;;
33495;SDS011;19836;55.812;37.560;2022-12-10T09:25:04;56.13;;;26.15;;
33495;SDS011;19836;55.812;37.560;2022-12-10T09:27:32;60.45;;;26.90;;
33495;SDS011;19836;55.812;37.560;2022-12-10T09:29:58;55.50;;;25.15;;
33495;SDS011;19836;55.812;37.560;2022-12-10T09:32:24;59.38;;;26.27;;
33495;SDS011;19836;55.812;37.560;2022-12-10T09:34:51;60.85;;;26.73;;
33495;SDS011;19836;55.812;37.560;2022-12-10T09:37:17;53.17;;;24.05;;
33495;SDS011;19836;55.812;37.560;2022-12-10T09:39:43;60.55;;;26.33;;
33495;SDS011;19836;55.812;37.560;2022-12-10T09:50:19;55.28;;;24.23;;
33495;SDS011;19836;55.812;37.560;2022-12-10T09:52:53;60.70;;;25.15;;
33495;SDS011;19836;55.812;37.560;2022-12-10T09:55:43;57.97;;;23.98;;
33495;SDS011;19836;55.812;37.560;2022-12-10T09:58:13;53.50;;;23.95;;
33495;SDS011;19836;55.812;37.560;2022-12-10T10:00:42;52.17;;;23.65;;
33495;SDS011;19836;55.812;37.560;2022-12-10T10:03:13;53.35;;;23.15;;
33495;SDS011;19836;55.812;37.560;2022-12-10T10:05:42;69.90;;;25.38;;
33495;SDS011;19836;55.812;37.560;2022-12-10T10:08:15;56.63;;;24.42;;
33495;SDS011;19836;55.812;37.560;2022-12-10T10:10:47;60.78;;;24.83;;
33495;SDS011;19836;55.812;37.560;2022-12-10T10:13:35;65.35;;;26.95;;
33495;SDS011;19836;55.812;37.560;2022-12-10T10:18:43;56.53;;;23.95;;
33495;SDS011;19836;55.812;37.560;2022-12-10T10:21:15;55.70;;;23.85;;
33495;SDS011;19836;55.812;37.560;2022-12-10T10:23:47;55.53;;;24.60;;
33495;SDS011;19836;55.812;37.560;2022-12-10T10:26:14;53.85;;;23.88;;
33495;SDS011;19836;55.812;37.560;2022-12-10T10:29:02;59.60;;;25.45;;
33495;SDS011;19836;55.812;37.560;2022-12-10T10:31:32;55.85;;;24.55;;
33495;SDS011;19836;55.812;37.560;2022-12-10T10:34:04;63.85;;;25.27;;
33495;SDS011;19836;55.812;37.560;2022-12-10T10:36:37;53.85;;;23.83;;
33495;SDS011;19836;55.812;37.560;2022-12-10T10:39:08;68.00;;;26.25;;
33495;SDS011;19836;55.812;37.560;2022-12-10T10:41:38;58.05;;;23.35;;
33495;SDS011;19836;55.812;37.560;2022-12-10T10:44:18;56.65;;;22.55;;
33495;SDS011;19836;55.812;37.560;2022-12-10T10:46:46;61.28;;;24.88;;
33495;SDS011;19836;55.812;37.560;2022-12-10T10:51:49;64.10;;;25.42;;
33495;SDS011;19836;55.812;37.560;2022-12-10T10:57:16;62.88;;;25.02;;
33495;SDS011;19836;55.812;37.560;2022-12-10T10:59:44;63.65;;;24.52;;
33495;SDS011;19836;55.812;37.560;2022-12-10T11:02:30;60.38;;;23.77;;
33495;SDS011;19836;55.812;37.560;2022-12-10T11:05:08;60.88;;;24.67;;
33495;SDS011;19836;55.812;37.560;2022-12-10T11:07:42;57.15;;;25.08;;
33495;SDS011;19836;55.812;37.560;2022-12-10T11:10:16;56.45;;;23.90;;
33495;SDS011;19836;55.812;37.560;2022-12-10T11:12:42;61.85;;;24.48;;
33495;SDS011;19836;55.812;37.560;2022-12-10T11:15:28;48.83;;;23.17;;
33495;SDS011;19836;55.812;37.560;2022-12-10T11:17:56;59.00;;;24.80;;
33495;SDS011;19836;55.812;37.560;2022-12-10T11:20:30;56.75;;;24.83;;
33495;SDS011;19836;55.812;37.560;2022-12-10T11:22:59;59.78;;;25.13;;
33495;SDS011;19836;55.812;37.560;2022-12-10T11:31:46;41.40;;;16.75;;
33495;SDS011;19836;55.812;37.560;2022-12-10T11:45:26;56.80;;;24.42;;
33495;SDS011;19836;55.812;37.560;2022-12-10T11:50:33;56.85;;;23.40;;
33495;SDS011;19836;55.812;37.560;2022-12-10T12:04:28;46.20;;;21.45;;
33495;SDS011;19836;55.812;37.560;2022-12-10T12:15:34;41.67;;;20.90;;
33495;SDS011;19836;55.812;37.560;2022-12-10T12:18:23;42.47;;;19.88;;
33495;SDS011;19836;55.812;37.560;2022-12-10T12:21:18;49.00;;;22.08;;
33495;SDS011;19836;55.812;37.560;2022-12-10T12:26:24;49.25;;;22.25;;
33495;SDS011;19836;55.812;37.560;2022-12-10T12:28:54;48.63;;;22.23;;
33495;SDS011;19836;55.812;37.560;2022-12-10T12:31:31;41.92;;;21.33;;
33495;SDS011;19836;55.812;37.560;2022-12-10T12:36:45;40.83;;;19.83;;
33495;SDS011;19836;55.812;37.560;2022-12-10T12:39:14;41.45;;;20.17;;
33495;SDS011;19836;55.812;37.560;2022-12-10T12:41:53;37.88;;;20.40;;
33495;SDS011;19836;55.812;37.560;2022-12-10T12:44:32;41.78;;;21.15;;
33495;SDS011;19836;55.812;37.560;2022-12-10T12:50:11;48.30;;;21.15;;
33495;SDS011;19836;55.812;37.560;2022-12-10T12:52:58;44.75;;;20.40;;
33495;SDS011;19836;55.812;37.560;2022-12-10T12:58:08;46.40;;;20.65;;
33495;SDS011;19836;55.812;37.560;2022-12-10T13:00:41;46.22;;;20.58;;
33495;SDS011;19836;55.812;37.560;2022-12-10T13:05:56;48.58;;;21.02;;
33495;SDS011;19836;55.812;37.560;2022-12-10T13:08:42;41.17;;;19.92;;
33495;SDS011;19836;55.812;37.560;2022-12-10T13:11:17;43.72;;;20.10;;
33495;SDS011;19836;55.812;37.560;2022-12-10T13:14:53;43.67;;;19.98;;
33495;SDS011;19836;55.812;37.560;2022-12-10T13:20:25;39.53;;;18.80;;
33495;SDS011;19836;55.812;37.560;2022-12-10T13:22:54;40.08;;;18.52;;
33495;SDS011;19836;55.812;37.560;2022-12-10T13:25:37;47.08;;;20.77;;
33495;SDS011;19836;55.812;37.560;2022-12-10T13:28:21;41.85;;;19.48;;
33495;SDS011;19836;55.812;37.560;2022-12-10T13:36:26;39.67;;;18.20;;
33495;SDS011;19836;55.812;37.560;2022-12-10T13:41:28;36.30;;;18.08;;
33495;SDS011;19836;55.812;37.560;2022-12-10T13:58:06;33.92;;;17.00;;
33495;SDS011;19836;55.812;37.560;2022-12-10T14:00:56;31.83;;;16.45;;
33495;SDS011;19836;55.812;37.560;2022-12-10T14:08:34;32.85;;;17.05;;
33495;SDS011;19836;55.812;37.560;2022-12-10T14:11:04;30.35;;;15.85;;
33495;SDS011;19836;55.812;37.560;2022-12-10T14:13:38;37.28;;;16.70;;
33495;SDS011;19836;55.812;37.560;2022-12-10T14:16:12;35.33;;;16.50;;
33495;SDS011;19836;55.812;37.560;2022-12-10T14:18:44;27.70;;;15.95;;
33495;SDS011;19836;55.812;37.560;2022-12-10T14:21:17;32.85;;;16.38;;
33495;SDS011;19836;55.812;37.560;2022-12-10T14:23:47;29.52;;;15.88;;
33495;SDS011;19836;55.812;37.560;2022-12-10T14:26:21;33.88;;;17.08;;
33495;SDS011;19836;55.812;37.560;2022-12-10T14:29:08;30.25;;;15.55;;
33495;SDS011;19836;55.812;37.560;2022-12-10T14:31:44;30.10;;;15.80;;
33495;SDS011;19836;55.812;37.560;2022-12-10T14:34:15;32.35;;;15.82;;
33495;SDS011;19836;55.812;37.560;2022-12-10T14:36:47;29.13;;;15.68;;
33495;SDS011;19836;55.812;37.560;2022-12-10T14:39:26;25.63;;;14.80;;
33495;SDS011;19836;55.812;37.560;2022-12-10T14:41:55;25.80;;;15.60;;
33495;SDS011;19836;55.812;37.560;2022-12-10T14:44:23;29.90;;;15.87;;
33495;SDS011;19836;55.812;37.560;2022-12-10T14:46:50;27.13;;;13.95;;
33495;SDS011;19836;55.812;37.560;2022-12-10T14:49:18;28.38;;;14.68;;
33495;SDS011;19836;55.812;37.560;2022-12-10T14:57:03;27.65;;;15.07;;
33495;SDS011;19836;55.812;37.560;2022-12-10T15:00:09;24.00;;;13.80;;
33495;SDS011;19836;55.812;37.560;2022-12-10T15:02:33;26.67;;;14.52;;
33495;SDS011;19836;55.812;37.560;2022-12-10T15:05:02;25.70;;;14.15;;
33495;SDS011;19836;55.812;37.560;2022-12-10T15:07:36;27.80;;;14.13;;
33495;SDS011;19836;55.812;37.560;2022-12-10T15:13:04;25.60;;;14.43;;
33495;SDS011;19836;55.812;37.560;2022-12-10T15:15:38;26.77;;;14.40;;
33495;SDS011;19836;55.812;37.560;2022-12-10T15:20:36;26.80;;;13.75;;
33495;SDS011;19836;55.812;37.560;2022-12-10T15:28:36;24.65;;;12.80;;
33495;SDS011;19836;55.812;37.560;2022-12-10T15:33:47;25.02;;;12.82;;
33495;SDS011;19836;55.812;37.560;2022-12-10T15:36:27;22.90;;;12.50;;
33495;SDS011;19836;55.812;37.560;2022-12-10T15:50:08;23.35;;;12.85;;
33495;SDS011;19836;55.812;37.560;2022-12-10T15:52:51;21.80;;;12.15;;
33495;SDS011;19836;55.812;37.560;2022-12-10T15:55:17;20.40;;;11.95;;
33495;SDS011;19836;55.812;37.560;2022-12-10T15:57:44;21.25;;;12.05;;
33495;SDS011;19836;55.812;37.560;2022-12-10T16:00:20;18.02;;;11.48;;
33495;SDS011;19836;55.812;37.560;2022-12-10T16:02:55;22.52;;;11.95;;
33495;SDS011;19836;55.812;37.560;2022-12-10T16:05:36;18.60;;;10.88;;
33495;SDS011;19836;55.812;37.560;2022-12-10T16:10:47;19.98;;;11.27;;
33495;SDS011;19836;55.812;37.560;2022-12-10T16:17:17;17.65;;;10.35;;
33495;SDS011;19836;55.812;37.560;2022-12-10T16:19:44;17.02;;;10.35;;
33495;SDS011;19836;55.812;37.560;2022-12-10T16:22:12;18.05;;;10.65;;
33495;SDS011;19836;55.812;37.560;2022-12-10T16:27:28;17.25;;;9.95;;
33495;SDS011;19836;55.812;37.560;2022-12-10T16:30:05;18.75;;;10.52;;
33495;SDS011;19836;55.812;37.560;2022-12-10T16:32:51;14.98;;;9.57;;
33495;SDS011;19836;55.812;37.560;2022-12-10T16:35:17;15.90;;;9.88;;
33495;SDS011;19836;55.812;37.560;2022-12-10T16:37:44;17.65;;;9.68;;
33495;SDS011;19836;55.812;37.560;2022-12-10T16:40:12;15.55;;;10.00;;
33495;SDS011;19836;55.812;37.560;2022-12-10T16:48:52;16.10;;;10.07;;
33495;SDS011;19836;55.812;37.560;2022-12-10T16:51:23;16.40;;;9.52;;
33495;SDS011;19836;55.812;37.560;2022-12-10T16:56:53;17.52;;;10.80;;
33495;SDS011;19836;55.812;37.560;2022-12-10T17:14:08;14.43;;;8.63;;
33495;SDS011;19836;55.812;37.560;2022-12-10T17:16:53;15.55;;;9.38;;
33495;SDS011;19836;55.812;37.560;2022-12-10T17:19:23;14.00;;;8.73;;
33495;SDS011;19836;55.812;37.560;2022-12-10T17:21:55;12.25;;;8.55;;
33495;SDS011;19836;55.812;37.560;2022-12-10T17:29:32;13.75;;;8.77;;
33495;SDS011;19836;55.812;37.560;2022-12-10T17:32:12;13.10;;;8.40;;
33495;SDS011;19836;55.812;37.560;2022-12-10T17:39:00;76.93;;;19.48;;
33495;SDS011;19836;55.812;37.560;2022-12-10T18:31:57;12.40;;;7.20;;
33495;SDS011;19836;55.812;37.560;2022-12-10T18:34:28;8.38;;;6.20;;
33495;SDS011;19836;55.812;37.560;2022-12-10T18:36:55;8.77;;;6.50;;
33495;SDS011;19836;55.812;37.560;2022-12-10T18:39:26;8.10;;;6.38;;
33495;SDS011;19836;55.812;37.560;2022-12-10T18:41:59;8.82;;;6.90;;
33495;SDS011;19836;55.812;37.560;2022-12-10T18:44:26;10.75;;;7.85;;
33495;SDS011;19836;55.812;37.560;2022-12-10T18:46:54;7.80;;;6.53;;
33495;SDS011;19836;55.812;37.560;2022-12-10T18:49:21;8.10;;;6.95;;
33495;SDS011;19836;55.812;37.560;2022-12-10T18:51:48;11.60;;;6.65;;
33495;SDS011;19836;55.812;37.560;2022-12-10T18:54:15;8.00;;;6.20;;
33495;SDS011;19836;55.812;37.560;2022-12-10T18:56:43;9.18;;;6.53;;
33495;SDS011;19836;55.812;37.560;2022-12-10T18:59:15;7.22;;;6.43;;
33495;SDS011;19836;55.812;37.560;2022-12-10T19:01:45;7.70;;;6.43;;
33495;SDS011;19836;55.812;37.560;2022-12-10T19:04:11;7.25;;;6.03;;
33495;SDS011;19836;55.812;37.560;2022-12-10T19:06:38;8.50;;;6.47;;
33495;SDS011;19836;55.812;37.560;2022-12-10T19:09:05;7.05;;;5.97;;
33495;SDS011;19836;55.812;37.560;2022-12-10T19:11:39;7.40;;;6.38;;
33495;SDS011;19836;55.812;37.560;2022-12-10T19:14:16;6.07;;;5.25;;
33495;SDS011;19836;55.812;37.560;2022-12-10T19:16:44;6.00;;;5.38;;
33495;SDS011;19836;55.812;37.560;2022-12-10T19:19:11;6.22;;;5.30;;
33495;SDS011;19836;55.812;37.560;2022-12-10T19:21:38;6.38;;;5.60;;
33495;SDS011;19836;55.812;37.560;2022-12-10T19:24:04;5.88;;;5.20;;
33495;SDS011;19836;55.812;37.560;2022-12-10T19:26:35;5.53;;;5.03;;
33495;SDS011;19836;55.812;37.560;2022-12-10T19:29:03;6.40;;;5.53;;
33495;SDS011;19836;55.812;37.560;2022-12-10T19:31:37;7.38;;;5.90;;
33495;SDS011;19836;55.812;37.560;2022-12-10T19:34:03;7.82;;;6.45;;
33495;SDS011;19836;55.812;37.560;2022-12-10T19:36:29;6.82;;;6.13;;
33495;SDS011;19836;55.812;37.560;2022-12-10T19:38:55;6.20;;;5.20;;
33495;SDS011;19836;55.812;37.560;2022-12-10T19:41:21;5.78;;;5.18;;
33495;SDS011;19836;55.812;37.560;2022-12-10T19:43:48;6.22;;;5.63;;
33495;SDS011;19836;55.812;37.560;2022-12-10T19:46:15;6.25;;;5.20;;
33495;SDS011;19836;55.812;37.560;2022-12-10T19:48:46;6.15;;;4.93;;
33495;SDS011;19836;55.812;37.560;2022-12-10T19:51:13;6.47;;;5.07;;
33495;SDS011;19836;55.812;37.560;2022-12-10T19:53:40;5.38;;;4.85;;
33495;SDS011;19836;55.812;37.560;2022-12-10T19:56:20;5.53;;;4.97;;
33495;SDS011;19836;55.812;37.560;2022-12-10T19:58:55;6.57;;;5.05;;
33495;SDS011;19836;55.812;37.560;2022-12-10T20:01:23;5.65;;;4.80;;
33495;SDS011;19836;55.812;37.560;2022-12-10T20:03:50;6.82;;;5.65;;
33495;SDS011;19836;55.812;37.560;2022-12-10T20:06:20;5.80;;;4.63;;
33495;SDS011;19836;55.812;37.560;2022-12-10T20:08:54;5.63;;;4.90;;
33495;SDS011;19836;55.812;37.560;2022-12-10T20:11:20;5.05;;;4.53;;
33495;SDS011;19836;55.812;37.560;2022-12-10T20:13:46;4.78;;;4.28;;
33495;SDS011;19836;55.812;37.560;2022-12-10T20:16:16;7.95;;;6.40;;
33495;SDS011;19836;55.812;37.560;2022-12-10T20:18:45;6.15;;;4.50;;
33495;SDS011;19836;55.812;37.560;2022-12-10T20:21:12;4.38;;;3.97;;
33495;SDS011;19836;55.812;37.560;2022-12-10T20:23:38;5.75;;;4.68;;
33495;SDS011;19836;55.812;37.560;2022-12-10T20:26:06;4.93;;;4.03;;
33495;SDS011;19836;55.812;37.560;2022-12-10T20:28:40;5.57;;;4.43;;
33495;SDS011;19836;55.812;37.560;2022-12-10T20:31:06;5.28;;;3.42;;
33495;SDS011;19836;55.812;37.560;2022-12-10T20:33:32;4.72;;;4.00;;
33495;SDS011;19836;55.812;37.560;2022-12-10T20:35:58;5.15;;;4.65;;
33495;SDS011;19836;55.812;37.560;2022-12-10T20:38:24;4.82;;;4.32;;
33495;SDS011;19836;55.812;37.560;2022-12-10T20:40:50;5.20;;;4.38;;
33495;SDS011;19836;55.812;37.560;2022-12-10T20:43:16;6.25;;;4.53;;
33495;SDS011;19836;55.812;37.560;2022-12-10T20:45:42;6.20;;;4.57;;
33495;SDS011;19836;55.812;37.560;2022-12-10T20:48:08;4.55;;;4.15;;
33495;SDS011;19836;55.812;37.560;2022-12-10T20:50:37;5.68;;;4.18;;
33495;SDS011;19836;55.812;37.560;2022-12-10T20:53:03;4.65;;;4.07;;
33495;SDS011;19836;55.812;37.560;2022-12-10T20:55:29;5.28;;;4.20;;
33495;SDS011;19836;55.812;37.560;2022-12-10T20:57:55;4.82;;;4.30;;
33495;SDS011;19836;55.812;37.560;2022-12-10T21:00:21;3.92;;;3.53;;
33495;SDS011;19836;55.812;37.560;2022-12-10T21:02:47;5.45;;;4.78;;
33495;SDS011;19836;55.812;37.560;2022-12-10T21:05:15;9.68;;;4.47;;
33495;SDS011;19836;55.812;37.560;2022-12-10T21:07:41;5.32;;;3.75;;
33495;SDS011;19836;55.812;37.560;2022-12-10T21:10:08;5.15;;;3.88;;
33495;SDS011;19836;55.812;37.560;2022-12-10T21:12:58;5.70;;;3.85;;
33495;SDS011;19836;55.812;37.560;2022-12-10T21:15:24;7.80;;;5.47;;
33495;SDS011;19836;55.812;37.560;2022-12-10T21:17:50;4.68;;;3.72;;
33495;SDS011;19836;55.812;37.560;2022-12-10T21:20:16;4.80;;;4.28;;
33495;SDS011;19836;55.812;37.560;2022-12-10T21:22:43;4.00;;;3.60;;
33495;SDS011;19836;55.812;37.560;2022-12-10T21:25:10;4.32;;;3.85;;
33495;SDS011;19836;55.812;37.560;2022-12-10T21:27:38;4.03;;;3.53;;
33495;SDS011;19836;55.812;37.560;2022-12-10T21:30:04;4.88;;;4.35;;
33495;SDS011;19836;55.812;37.560;2022-12-10T21:32:30;5.80;;;4.07;;
33495;SDS011;19836;55.812;37.560;2022-12-10T21:34:56;5.43;;;3.80;;
33495;SDS011;19836;55.812;37.560;2022-12-10T21:37:22;4.28;;;3.47;;
33495;SDS011;19836;55.812;37.560;2022-12-10T21:39:48;4.85;;;3.53;;
33495;SDS011;19836;55.812;37.560;2022-12-10T21:42:14;4.50;;;3.80;;
33495;SDS011;19836;55.812;37.560;2022-12-10T21:44:58;5.47;;;4.07;;
33495;SDS011;19836;55.812;37.560;2022-12-10T21:47:24;4.90;;;4.10;;
33495;SDS011;19836;55.812;37.560;2022-12-10T21:49:52;4.35;;;3.85;;
33495;SDS011;19836;55.812;37.560;2022-12-10T21:52:18;4.88;;;4.30;;
33495;SDS011;19836;55.812;37.560;2022-12-10T21:54:44;4.63;;;4.13;;
33495;SDS011;19836;55.812;37.560;2022-12-10T21:57:10;4.22;;;3.83;;
33495;SDS011;19836;55.812;37.560;2022-12-10T21:59:36;4.88;;;4.28;;
33495;SDS011;19836;55.812;37.560;2022-12-10T22:02:02;5.70;;;3.97;;
33495;SDS011;19836;55.812;37.560;2022-12-10T22:04:28;5.00;;;4.50;;
33495;SDS011;19836;55.812;37.560;2022-12-10T22:06:54;5.32;;;4.25;;
33495;SDS011;19836;55.812;37.560;2022-12-10T22:09:20;5.60;;;4.53;;
33495;SDS011;19836;55.812;37.560;2022-12-10T22:11:46;4.63;;;4.15;;
33495;SDS011;19836;55.812;37.560;2022-12-10T22:14:12;5.15;;;3.92;;
33495;SDS011;19836;55.812;37.560;2022-12-10T22:16:38;5.60;;;3.63;;
33495;SDS011;19836;55.812;37.560;2022-12-10T22:19:04;4.22;;;3.83;;
33495;SDS011;19836;55.812;37.560;2022-12-10T22:21:31;5.72;;;4.22;;
33495;SDS011;19836;55.812;37.560;2022-12-10T22:23:57;6.50;;;5.07;;
33495;SDS011;19836;55.812;37.560;2022-12-10T22:26:22;5.25;;;4.05;;
33495;SDS011;19836;55.812;37.560;2022-12-10T22:28:49;4.75;;;4.13;;
33495;SDS011;19836;55.812;37.560;2022-12-10T22:31:15;5.18;;;4.03;;
33495;SDS011;19836;55.812;37.560;2022-12-10T22:33:41;4.82;;;4.28;;
33495;SDS011;19836;55.812;37.560;2022-12-10T22:36:06;5.15;;;4.50;;
33495;SDS011;19836;55.812;37.560;2022-12-10T22:38:34;4.80;;;4.20;;
33495;SDS011;19836;55.812;37.560;2022-12-10T22:41:01;5.22;;;4.03;;
33495;SDS011;19836;55.812;37.560;2022-12-10T22:43:28;5.32;;;4.05;;
33495;SDS011;19836;55.812;37.560;2022-12-10T22:45:54;6.57;;;4.18;;
33495;SDS011;19836;55.812;37.560;2022-12-10T22:48:21;6.75;;;4.07;;
33495;SDS011;19836;55.812;37.560;2022-12-10T22:50:48;4.60;;;4.07;;
33495;SDS011;19836;55.812;37.560;2022-12-10T22:53:14;6.65;;;4.47;;
33495;SDS011;19836;55.812;37.560;2022-12-10T22:55:40;4.50;;;4.10;;
33495;SDS011;19836;55.812;37.560;2022-12-10T22:58:06;4.97;;;4.47;;
33495;SDS011;19836;55.812;37.560;2022-12-10T23:00:32;5.80;;;4.40;;
33495;SDS011;19836;55.812;37.560;2022-12-10T23:02:58;6.53;;;4.30;;
33495;SDS011;19836;55.812;37.560;2022-12-10T23:05:26;4.97;;;4.20;;
33495;SDS011;19836;55.812;37.560;2022-12-10T23:07:51;4.82;;;4.32;;
33495;SDS011;19836;55.812;37.560;2022-12-10T23:10:17;4.45;;;4.03;;
33495;SDS011;19836;55.812;37.560;2022-12-10T23:12:43;6.57;;;3.85;;
33495;SDS011;19836;55.812;37.560;2022-12-10T23:15:41;6.50;;;4.28;;
33495;SDS011;19836;55.812;37.560;2022-12-10T23:18:08;5.82;;;4.50;;
33495;SDS011;19836;55.812;37.560;2022-12-10T23:20:36;8.40;;;5.65;;
33495;SDS011;19836;55.812;37.560;2022-12-10T23:23:02;20.80;;;9.15;;
33495;SDS011;19836;55.812;37.560;2022-12-10T23:25:28;7.03;;;5.40;;
33495;SDS011;19836;55.812;37.560;2022-12-10T23:27:54;39.65;;;15.80;;
33495;SDS011;19836;55.812;37.560;2022-12-10T23:30:20;8.02;;;5.90;;
33495;SDS011;19836;55.812;37.560;2022-12-10T23:32:46;7.60;;;5.70;;
33495;SDS011;19836;55.812;37.560;2022-12-10T23:35:12;5.78;;;4.95;;
33495;SDS011;19836;55.812;37.560;2022-12-10T23:37:38;6.32;;;4.60;;
33495;SDS011;19836;55.812;37.560;2022-12-10T23:40:05;9.13;;;5.07;;
33495;SDS011;19836;55.812;37.560;2022-12-10T23:42:32;9.38;;;5.90;;
33495;SDS011;19836;55.812;37.560;2022-12-10T23:44:58;9.55;;;5.70;;
33495;SDS011;19836;55.812;37.560;2022-12-10T23:47:24;5.32;;;4.82;;
33495;SDS011;19836;55.812;37.560;2022-12-10T23:49:50;7.05;;;5.60;;
33495;SDS011;19836;55.812;37.560;2022-12-10T23:52:17;5.70;;;4.90;;
33495;SDS011;19836;55.812;37.560;2022-12-10T23:54:42;7.80;;;5.57;;
33495;SDS011;19836;55.812;37.560;2022-12-10T23:57:08;5.32;;;4.82;;
33495;SDS011;19836;55.812;37.560;2022-12-10T23:59:35;6.68;;;5.85;;
